createdAt,value
2022-10-19T00:01:08.581Z,15.88
2022-10-19T00:03:36.288Z,14.85
2022-10-19T00:06:13.750Z,14.35
2022-10-19T00:08:40.467Z,14.48
2022-10-19T00:11:07.469Z,14.18
2022-10-19T00:13:34.104Z,15.48
2022-10-19T00:16:00.660Z,15.45
2022-10-19T00:18:27.243Z,15.02
2022-10-19T00:21:01.980Z,15.05
2022-10-19T00:25:56.209Z,12.95
2022-10-19T00:28:22.945Z,14.43
2022-10-19T00:33:22.529Z,16.83
2022-10-19T00:35:50.836Z,15.82
2022-10-19T00:38:19.137Z,18.42
2022-10-19T00:40:46.531Z,18.05
2022-10-19T00:43:15.866Z,17.80
2022-10-19T00:45:42.802Z,17.95
2022-10-19T00:48:13.224Z,17.08
2022-10-19T00:50:40.779Z,18.77
2022-10-19T00:53:07.325Z,19.55
2022-10-19T00:55:34.713Z,18.33
2022-10-19T00:58:03.072Z,18.85
2022-10-19T01:00:29.996Z,18.17
2022-10-19T01:02:59.044Z,18.13
2022-10-19T01:05:26.472Z,16.63
2022-10-19T01:07:53.931Z,16.80
2022-10-19T01:10:25.211Z,16.27
2022-10-19T01:13:14.887Z,15.30
2022-10-19T01:16:01.632Z,15.57
2022-10-19T01:18:45.296Z,16.40
2022-10-19T01:21:21.723Z,15.02
2022-10-19T01:24:07.057Z,15.85
2022-10-19T01:26:52.404Z,15.35
2022-10-19T01:29:52.846Z,15.82
2022-10-19T01:32:38.214Z,15.65
2022-10-19T01:35:17.031Z,14.55
2022-10-19T01:37:59.252Z,15.40
2022-10-19T01:40:42.705Z,15.88
2022-10-19T01:43:23.171Z,14.65
2022-10-19T01:45:55.519Z,15.50
2022-10-19T01:48:35.524Z,16.70
2022-10-19T01:51:06.293Z,15.38
2022-10-19T01:53:40.393Z,16.65
2022-10-19T01:56:08.692Z,17.05
2022-10-19T01:58:38.769Z,17.73
2022-10-19T02:01:09.174Z,17.15
2022-10-19T02:03:37.534Z,17.70
2022-10-19T02:06:06.473Z,17.70
2022-10-19T02:08:53.138Z,18.92
2022-10-19T02:11:21.945Z,17.95
2022-10-19T02:14:04.509Z,16.80
2022-10-19T02:16:38.754Z,17.25
2022-10-19T02:19:08.777Z,19.35
2022-10-19T02:21:35.558Z,17.48
2022-10-19T02:24:02.043Z,15.98
2022-10-19T02:26:28.627Z,17.30
2022-10-19T02:28:56.664Z,18.00
2022-10-19T02:31:24.421Z,15.57
2022-10-19T02:33:51.524Z,16.60
2022-10-19T02:36:18.740Z,14.55
2022-10-19T02:38:45.373Z,15.75
2022-10-19T02:41:22.048Z,16.15
2022-10-19T02:43:52.983Z,14.43
2022-10-19T02:46:49.791Z,17.58
2022-10-19T02:49:16.869Z,19.10
2022-10-19T02:52:01.605Z,18.70
2022-10-19T02:54:29.085Z,20.23
2022-10-19T02:56:56.583Z,18.25
2022-10-19T02:59:23.933Z,19.77
2022-10-19T03:01:50.863Z,18.63
2022-10-19T03:04:17.689Z,19.15
2022-10-19T03:06:44.424Z,20.85
2022-10-19T03:09:10.968Z,18.63
2022-10-19T03:11:37.577Z,17.17
2022-10-19T03:14:04.123Z,17.52
2022-10-19T03:16:30.686Z,18.77
2022-10-19T03:18:57.216Z,16.90
2022-10-19T03:21:23.917Z,15.23
2022-10-19T03:23:50.462Z,14.50
2022-10-19T03:26:18.007Z,14.15
2022-10-19T03:28:44.669Z,14.02
2022-10-19T03:31:11.859Z,13.38
2022-10-19T03:33:38.505Z,13.70
2022-10-19T03:36:23.811Z,14.40
2022-10-19T03:38:51.930Z,12.75
2022-10-19T03:41:19.981Z,13.13
2022-10-19T03:43:46.687Z,13.80
2022-10-19T03:46:13.453Z,12.45
2022-10-19T03:48:40.087Z,12.68
2022-10-19T03:51:09.277Z,11.77
2022-10-19T03:53:36.634Z,11.30
2022-10-19T03:56:15.284Z,10.60
2022-10-19T03:58:43.025Z,11.60
2022-10-19T04:01:12.304Z,10.57
2022-10-19T04:03:39.101Z,10.02
2022-10-19T04:06:26.756Z,10.52
2022-10-19T04:08:53.785Z,11.60
2022-10-19T04:11:26.592Z,10.75
2022-10-19T04:13:54.778Z,10.38
2022-10-19T04:16:23.125Z,9.48
2022-10-19T04:18:49.916Z,10.05
2022-10-19T04:21:28.393Z,9.75
2022-10-19T04:24:01.569Z,10.05
2022-10-19T04:26:28.249Z,9.27
2022-10-19T04:28:57.997Z,9.43
2022-10-19T04:31:25.127Z,10.00
2022-10-19T04:33:51.714Z,10.07
2022-10-19T04:36:18.373Z,10.43
2022-10-19T04:38:44.996Z,10.38
2022-10-19T04:41:13.786Z,10.82
2022-10-19T04:43:40.830Z,10.30
2022-10-19T04:46:14.325Z,9.60
2022-10-19T04:48:41.678Z,11.65
2022-10-19T04:51:09.249Z,10.68
2022-10-19T04:53:38.158Z,9.68
2022-10-19T04:56:06.958Z,11.20
2022-10-19T04:58:34.312Z,11.27
2022-10-19T05:01:07.972Z,11.07
2022-10-19T05:03:34.540Z,10.25
2022-10-19T05:06:01.084Z,11.95
2022-10-19T05:08:27.613Z,11.48
2022-10-19T05:10:54.211Z,11.63
2022-10-19T05:13:20.902Z,12.48
2022-10-19T05:15:58.149Z,13.70
2022-10-19T05:18:24.915Z,13.63
2022-10-19T05:20:51.644Z,13.52
2022-10-19T05:23:18.196Z,11.82
2022-10-19T05:25:44.893Z,12.35
2022-10-19T05:28:11.622Z,13.38
2022-10-19T05:30:39.282Z,12.95
2022-10-19T05:33:05.932Z,12.82
2022-10-19T05:35:32.533Z,12.20
2022-10-19T05:37:59.073Z,12.45
2022-10-19T05:40:25.591Z,13.65
2022-10-19T05:42:52.124Z,11.52
2022-10-19T05:45:18.747Z,13.23
2022-10-19T05:47:45.267Z,11.10
2022-10-19T05:50:11.794Z,8.90
2022-10-19T05:52:38.312Z,10.07
2022-10-19T05:55:05.386Z,9.77
2022-10-19T05:57:32.990Z,9.60
2022-10-19T05:59:59.871Z,10.75
2022-10-19T06:02:26.385Z,10.02
2022-10-19T06:04:52.998Z,9.68
2022-10-19T06:07:19.543Z,9.85
2022-10-19T06:09:46.211Z,9.93
2022-10-19T06:12:13.496Z,9.50
2022-10-19T06:14:42.526Z,9.32
2022-10-19T06:17:09.322Z,8.70
2022-10-19T06:19:35.976Z,7.93
2022-10-19T06:22:02.644Z,8.48
2022-10-19T06:24:29.178Z,10.65
2022-10-19T06:26:55.886Z,8.80
2022-10-19T06:29:22.400Z,9.82
2022-10-19T06:31:48.949Z,8.95
2022-10-19T06:34:15.687Z,9.23
2022-10-19T06:36:42.269Z,8.25
2022-10-19T06:39:09.494Z,8.98
2022-10-19T06:41:36.153Z,10.02
2022-10-19T06:44:02.779Z,8.55
2022-10-19T06:46:29.400Z,9.35
2022-10-19T06:49:01.579Z,9.40
2022-10-19T06:51:30.498Z,8.48
2022-10-19T06:53:57.640Z,8.10
2022-10-19T06:56:25.076Z,6.80
2022-10-19T06:58:52.034Z,6.32
2022-10-19T07:01:18.758Z,6.28
2022-10-19T07:03:45.700Z,6.80
2022-10-19T07:06:13.646Z,7.15
2022-10-19T07:08:41.753Z,7.68
2022-10-19T07:11:16.515Z,6.85
2022-10-19T07:16:16.007Z,9.32
2022-10-19T07:18:47.006Z,8.55
2022-10-19T07:21:16.197Z,8.07
2022-10-19T07:23:44.998Z,7.93
2022-10-19T07:26:23.836Z,8.18
2022-10-19T07:28:51.418Z,7.68
2022-10-19T07:31:21.344Z,8.35
2022-10-19T07:33:51.942Z,7.70
2022-10-19T07:36:18.478Z,7.97
2022-10-19T07:38:45.035Z,9.07
2022-10-19T07:41:16.791Z,9.90
2022-10-19T07:43:45.237Z,12.18
2022-10-19T07:46:20.376Z,9.85
2022-10-19T07:48:47.502Z,8.50
2022-10-19T07:51:15.940Z,7.97
2022-10-19T07:53:43.521Z,8.10
2022-10-19T07:56:19.287Z,7.55
2022-10-19T07:58:46.363Z,7.60
2022-10-19T08:01:15.766Z,8.70
2022-10-19T08:04:42.778Z,8.73
2022-10-19T08:06:29.572Z,8.20
2022-10-19T08:08:56.650Z,9.80
2022-10-19T08:11:26.406Z,7.47
2022-10-19T08:13:53.941Z,6.43
2022-10-19T08:16:25.089Z,5.45
2022-10-19T08:18:53.111Z,6.07
2022-10-19T08:21:19.732Z,5.13
2022-10-19T08:23:46.237Z,5.53
2022-10-19T08:26:12.850Z,5.45
2022-10-19T08:28:39.660Z,5.82
2022-10-19T08:31:22.256Z,6.25
2022-10-19T08:33:50.850Z,6.20
2022-10-19T08:36:19.712Z,5.47
2022-10-19T08:38:48.436Z,5.57
2022-10-19T08:41:39.895Z,5.57
2022-10-19T08:44:15.250Z,5.95
2022-10-19T08:47:06.113Z,6.03
2022-10-19T08:49:35.285Z,5.35
2022-10-19T08:52:11.474Z,5.20
2022-10-19T08:57:33.737Z,4.50
2022-10-19T09:00:15.406Z,4.95
2022-10-19T09:03:09.762Z,5.35
2022-10-19T09:05:52.970Z,4.78
2022-10-19T09:08:20.722Z,4.68
2022-10-19T09:10:50.565Z,4.22
2022-10-19T09:14:00.436Z,4.53
2022-10-19T09:16:29.078Z,5.15
2022-10-19T09:18:55.717Z,4.40
2022-10-19T09:21:34.443Z,4.70
2022-10-19T09:24:25.015Z,4.55
2022-10-19T09:26:53.885Z,3.92
2022-10-19T09:29:28.775Z,4.20
2022-10-19T09:34:36.784Z,4.30
2022-10-19T09:37:06.012Z,4.18
2022-10-19T09:39:32.851Z,4.40
2022-10-19T09:42:01.211Z,4.30
2022-10-19T09:44:27.862Z,4.25
2022-10-19T09:47:13.789Z,3.50
2022-10-19T09:49:46.300Z,4.38
2022-10-19T09:52:35.957Z,3.95
2022-10-19T09:55:14.717Z,4.75
2022-10-19T09:57:58.543Z,4.28
2022-10-19T10:00:31.664Z,3.75
2022-10-19T10:02:58.256Z,4.05
2022-10-19T10:05:33.885Z,3.92
2022-10-19T10:08:00.832Z,3.72
2022-10-19T10:10:39.485Z,3.90
2022-10-19T10:13:06.421Z,4.35
2022-10-19T10:15:43.642Z,3.40
2022-10-19T10:18:15.587Z,3.47
2022-10-19T10:20:59.261Z,3.85
2022-10-19T10:23:29.297Z,3.47
2022-10-19T10:25:57.854Z,3.53
2022-10-19T10:28:27.045Z,3.28
2022-10-19T10:31:08.878Z,3.60
2022-10-19T10:33:45.161Z,3.28
2022-10-19T10:36:13.188Z,3.97
2022-10-19T10:38:45.690Z,3.55
2022-10-19T10:41:18.652Z,3.40
2022-10-19T10:43:53.824Z,3.75
2022-10-19T10:46:28.325Z,3.92
2022-10-19T10:49:15.631Z,4.03
2022-10-19T10:51:54.038Z,4.07
2022-10-19T10:54:23.760Z,4.82
2022-10-19T10:57:19.988Z,3.92
2022-10-19T11:00:15.550Z,3.75
2022-10-19T11:02:52.160Z,3.65
2022-10-19T11:05:26.588Z,3.15
2022-10-19T11:08:04.835Z,3.17
2022-10-19T11:10:31.406Z,2.90
2022-10-19T11:13:24.171Z,3.25
2022-10-19T11:15:57.485Z,3.35
2022-10-19T11:18:46.128Z,3.08
2022-10-19T11:21:15.679Z,3.28
2022-10-19T11:24:02.293Z,3.08
2022-10-19T11:26:58.180Z,3.22
2022-10-19T11:29:38.256Z,3.10
2022-10-19T11:32:14.475Z,2.60
2022-10-19T11:35:20.840Z,2.80
2022-10-19T11:38:17.988Z,3.33
2022-10-19T11:40:54.234Z,2.92
2022-10-19T11:43:38.996Z,3.40
2022-10-19T11:46:45.696Z,3.42
2022-10-19T11:52:54.744Z,3.38
2022-10-19T11:55:51.288Z,4.05
2022-10-19T11:58:57.750Z,3.25
2022-10-19T12:01:46.014Z,3.38
2022-10-19T12:04:24.759Z,3.25
2022-10-19T12:07:10.845Z,3.05
2022-10-19T12:09:55.444Z,3.50
2022-10-19T12:12:36.206Z,3.65
2022-10-19T12:15:26.238Z,3.67
2022-10-19T12:17:56.170Z,3.67
2022-10-19T12:20:42.319Z,3.50
2022-10-19T12:23:25.852Z,3.35
2022-10-19T12:25:55.670Z,3.85
2022-10-19T12:28:28.053Z,3.78
2022-10-19T12:30:55.751Z,3.67
2022-10-19T12:33:37.248Z,4.10
2022-10-19T12:36:11.600Z,4.25
2022-10-19T12:38:50.734Z,4.03
2022-10-19T12:41:33.053Z,3.40
2022-10-19T12:44:02.740Z,4.03
2022-10-19T12:46:38.116Z,3.63
2022-10-19T12:49:26.595Z,3.40
2022-10-19T12:51:54.811Z,3.60
2022-10-19T12:54:26.026Z,3.50
2022-10-19T12:56:55.978Z,3.20
2022-10-19T12:59:35.014Z,2.75
2022-10-19T13:02:04.925Z,3.58
2022-10-19T13:04:34.426Z,3.63
2022-10-19T13:07:05.129Z,3.72
2022-10-19T13:09:41.930Z,3.92
2022-10-19T13:12:33.167Z,3.75
2022-10-19T13:15:02.259Z,3.70
2022-10-19T13:17:51.004Z,4.05
2022-10-19T13:20:17.503Z,3.50
2022-10-19T13:22:50.387Z,3.22
2022-10-19T13:25:19.501Z,3.38
2022-10-19T13:27:53.881Z,3.90
2022-10-19T13:30:35.726Z,4.00
2022-10-19T13:33:31.617Z,3.15
2022-10-19T13:36:04.391Z,3.20
2022-10-19T13:38:39.000Z,3.75
2022-10-19T13:41:28.029Z,3.63
2022-10-19T13:44:18.253Z,3.80
2022-10-19T13:47:00.819Z,3.60
2022-10-19T13:49:43.378Z,3.00
2022-10-19T13:52:43.523Z,3.63
2022-10-19T13:55:16.041Z,2.85
2022-10-19T13:58:04.229Z,3.72
2022-10-19T14:00:47.779Z,3.70
2022-10-19T14:03:20.576Z,3.05
2022-10-19T14:06:27.692Z,3.00
2022-10-19T14:09:25.661Z,2.65
2022-10-19T14:11:54.540Z,2.35
2022-10-19T14:14:24.238Z,2.60
2022-10-19T14:17:01.451Z,2.65
2022-10-19T14:19:43.684Z,2.50
2022-10-19T14:22:40.693Z,1.92
2022-10-19T14:25:18.307Z,2.28
2022-10-19T14:27:54.061Z,2.20
2022-10-19T14:30:21.693Z,2.53
2022-10-19T14:32:48.419Z,2.20
2022-10-19T14:35:30.839Z,2.22
2022-10-19T14:37:58.748Z,2.20
2022-10-19T14:40:28.657Z,2.38
2022-10-19T14:42:57.248Z,2.10
2022-10-19T14:45:27.117Z,2.03
2022-10-19T14:48:17.718Z,2.03
2022-10-19T14:50:51.544Z,2.00
2022-10-19T14:53:36.218Z,2.20
2022-10-19T14:56:32.919Z,1.83
2022-10-19T14:59:03.386Z,1.33
2022-10-19T15:01:30.225Z,2.03
2022-10-19T15:03:56.941Z,2.17
2022-10-19T15:06:30.551Z,1.77
2022-10-19T15:09:04.131Z,2.10
2022-10-19T15:11:37.924Z,1.88
2022-10-19T15:14:22.166Z,1.60
2022-10-19T15:16:56.935Z,1.53
2022-10-19T15:22:12.869Z,2.45
2022-10-19T15:24:40.493Z,1.70
2022-10-19T15:27:19.629Z,1.67
2022-10-19T15:30:00.376Z,1.73
2022-10-19T15:32:35.719Z,1.52
2022-10-19T15:35:18.515Z,1.17
2022-10-19T15:37:49.450Z,2.92
2022-10-19T15:40:29.664Z,2.20
2022-10-19T15:42:56.497Z,1.90
2022-10-19T15:45:38.676Z,1.67
2022-10-19T15:48:11.224Z,1.65
2022-10-19T15:50:42.672Z,1.75
2022-10-19T15:53:10.701Z,1.50
2022-10-19T15:55:37.718Z,2.25
2022-10-19T15:58:04.265Z,2.10
2022-10-19T16:00:31.041Z,2.03
2022-10-19T16:02:57.583Z,2.42
2022-10-19T16:05:24.489Z,1.65
2022-10-19T16:07:51.255Z,1.48
2022-10-19T16:10:21.944Z,1.50
2022-10-19T16:12:48.550Z,1.67
2022-10-19T16:15:22.495Z,1.60
2022-10-19T16:17:52.257Z,1.80
2022-10-19T16:20:19.569Z,1.95
2022-10-19T16:22:47.492Z,1.67
2022-10-19T16:25:14.587Z,1.50
2022-10-19T16:27:41.194Z,1.92
2022-10-19T16:30:08.413Z,1.65
2022-10-19T16:32:35.135Z,1.77
2022-10-19T16:35:01.710Z,1.85
2022-10-19T16:37:28.342Z,1.63
2022-10-19T16:39:54.836Z,1.90
2022-10-19T16:42:22.300Z,1.67
2022-10-19T16:44:49.535Z,1.55
2022-10-19T16:47:17.136Z,1.25
2022-10-19T16:49:43.706Z,1.80
2022-10-19T16:52:14.107Z,1.67
2022-10-19T16:54:40.851Z,1.70
2022-10-19T16:57:10.075Z,1.30
2022-10-19T16:59:36.806Z,1.50
2022-10-19T17:02:03.427Z,1.52
2022-10-19T17:04:29.945Z,1.48
2022-10-19T17:06:57.645Z,1.38
2022-10-19T17:12:12.848Z,3.05
2022-10-19T17:14:41.475Z,1.45
2022-10-19T17:17:09.699Z,1.35
2022-10-19T17:19:37.509Z,1.65
2022-10-19T17:22:05.433Z,1.92
2022-10-19T17:24:32.320Z,1.98
2022-10-19T17:27:01.462Z,1.90
2022-10-19T17:29:27.996Z,1.90
2022-10-19T17:31:54.546Z,1.90
2022-10-19T17:34:21.087Z,2.60
2022-10-19T17:36:47.969Z,2.60
2022-10-19T17:39:18.316Z,2.38
2022-10-19T17:41:46.960Z,2.30
2022-10-19T17:44:14.164Z,2.35
2022-10-19T17:46:41.110Z,2.80
2022-10-19T17:49:07.866Z,2.30
2022-10-19T17:51:36.225Z,2.38
2022-10-19T17:54:08.670Z,2.42
2022-10-19T17:56:36.250Z,1.60
2022-10-19T17:59:03.295Z,2.10
2022-10-19T18:01:30.488Z,1.77
2022-10-19T18:03:57.179Z,1.73
2022-10-19T18:06:29.618Z,2.03
2022-10-19T18:08:57.225Z,2.10
2022-10-19T18:11:32.402Z,4.05
2022-10-19T18:14:00.887Z,2.35
2022-10-19T18:16:30.654Z,2.28
2022-10-19T18:18:59.284Z,2.65
2022-10-19T18:21:35.988Z,2.30
2022-10-19T18:24:03.181Z,2.55
2022-10-19T18:26:32.288Z,2.72
2022-10-19T18:29:00.299Z,2.58
2022-10-19T18:31:31.622Z,1.77
2022-10-19T18:34:04.813Z,2.08
2022-10-19T18:36:32.586Z,2.38
2022-10-19T18:39:01.804Z,2.03
2022-10-19T18:41:29.752Z,1.63
2022-10-19T18:44:03.763Z,1.70
2022-10-19T18:46:30.801Z,1.58
2022-10-19T18:48:57.380Z,1.75
2022-10-19T18:51:24.332Z,2.00
2022-10-19T18:53:51.015Z,1.85
2022-10-19T18:56:20.128Z,2.03
2022-10-19T18:58:47.407Z,1.90
2022-10-19T19:01:15.791Z,2.10
2022-10-19T19:03:44.560Z,2.20
2022-10-19T19:06:20.170Z,1.92
2022-10-19T19:08:47.690Z,2.15
2022-10-19T19:11:17.095Z,2.42
2022-10-19T19:13:51.597Z,1.70
2022-10-19T19:16:19.200Z,2.00
2022-10-19T19:18:46.476Z,2.13
2022-10-19T19:21:19.492Z,2.35
2022-10-19T19:23:46.365Z,2.17
2022-10-19T19:26:13.565Z,2.13
2022-10-19T19:28:41.894Z,2.30
2022-10-19T19:31:10.727Z,1.88
2022-10-19T19:33:38.602Z,1.83
2022-10-19T19:36:06.888Z,2.42
2022-10-19T19:38:34.107Z,1.83
2022-10-19T19:41:04.570Z,2.47
2022-10-19T19:43:33.314Z,1.92
2022-10-19T19:46:04.628Z,1.88
2022-10-19T19:48:34.714Z,2.22
2022-10-19T19:51:01.364Z,2.28
2022-10-19T19:53:27.871Z,2.15
2022-10-19T19:55:54.421Z,2.33
2022-10-19T19:58:21.083Z,2.47
2022-10-19T20:00:47.721Z,2.28
2022-10-19T20:03:14.388Z,2.35
2022-10-19T20:05:41.112Z,2.42
2022-10-19T20:08:08.570Z,2.30
2022-10-19T20:10:39.684Z,2.67
2022-10-19T20:13:06.449Z,2.25
2022-10-19T20:15:33.588Z,2.63
2022-10-19T20:18:00.163Z,2.88
2022-10-19T20:20:26.775Z,2.63
2022-10-19T20:22:53.494Z,2.83
2022-10-19T20:25:20.044Z,2.33
2022-10-19T20:27:46.590Z,2.90
2022-10-19T20:30:13.210Z,2.40
2022-10-19T20:32:39.972Z,2.75
2022-10-19T20:35:07.621Z,2.38
2022-10-19T20:37:34.665Z,2.25
2022-10-19T20:40:08.174Z,2.58
2022-10-19T20:42:35.424Z,2.55
2022-10-19T20:45:02.202Z,3.00
2022-10-19T20:47:28.764Z,2.40
2022-10-19T20:49:55.364Z,2.65
2022-10-19T20:52:21.934Z,2.50
2022-10-19T20:54:49.341Z,3.20
2022-10-19T20:57:15.910Z,2.92
2022-10-19T20:59:44.003Z,2.55
2022-10-19T21:02:11.014Z,2.47
2022-10-19T21:04:37.622Z,2.50
2022-10-19T21:07:05.101Z,2.63
2022-10-19T21:09:32.246Z,2.40
2022-10-19T21:11:58.976Z,2.58
2022-10-19T21:14:28.881Z,3.03
2022-10-19T21:17:02.248Z,2.88
2022-10-19T21:19:30.172Z,2.58
2022-10-19T21:22:02.234Z,3.03
2022-10-19T21:24:34.122Z,2.67
2022-10-19T21:27:02.449Z,2.80
2022-10-19T21:29:29.326Z,3.25
2022-10-19T21:31:56.151Z,2.70
2022-10-19T21:34:25.918Z,3.38
2022-10-19T21:36:53.436Z,2.75
2022-10-19T21:39:20.454Z,3.00
2022-10-19T21:41:48.052Z,2.97
2022-10-19T21:44:16.221Z,2.63
2022-10-19T21:46:45.832Z,3.08
2022-10-19T21:49:12.818Z,2.92
2022-10-19T21:51:46.496Z,3.00
2022-10-19T21:54:15.840Z,2.80
2022-10-19T21:56:43.431Z,2.60
2022-10-19T21:59:10.269Z,3.78
2022-10-19T22:01:40.159Z,3.03
2022-10-19T22:04:11.983Z,3.50
2022-10-19T22:06:38.852Z,3.70
2022-10-19T22:09:07.569Z,3.10
2022-10-19T22:11:34.319Z,3.45
2022-10-19T22:14:03.017Z,3.00
2022-10-19T22:16:31.448Z,4.05
2022-10-19T22:18:58.140Z,2.75
2022-10-19T22:21:28.265Z,3.30
2022-10-19T22:24:07.146Z,3.47
2022-10-19T22:26:39.601Z,3.17
2022-10-19T22:29:07.048Z,3.00
2022-10-19T22:31:34.803Z,3.38
2022-10-19T22:34:07.684Z,2.88
2022-10-19T22:36:34.803Z,3.80
2022-10-19T22:39:01.604Z,3.38
2022-10-19T22:41:28.123Z,2.95
2022-10-19T22:43:54.594Z,3.17
2022-10-19T22:46:21.073Z,2.72
2022-10-19T22:48:47.582Z,3.05
2022-10-19T22:51:14.239Z,2.65
2022-10-19T22:53:40.831Z,2.83
2022-10-19T22:56:08.160Z,3.35
2022-10-19T22:58:34.623Z,3.90
2022-10-19T23:01:04.406Z,3.67
2022-10-19T23:03:30.976Z,3.38
2022-10-19T23:05:58.560Z,3.05
2022-10-19T23:08:25.627Z,2.78
2022-10-19T23:10:52.497Z,2.63
2022-10-19T23:13:19.054Z,3.03
2022-10-19T23:15:45.883Z,3.65
2022-10-19T23:18:13.599Z,2.80
2022-10-19T23:20:40.261Z,2.85
2022-10-19T23:23:07.710Z,3.03
2022-10-19T23:25:34.456Z,2.80
2022-10-19T23:28:01.049Z,2.83
2022-10-19T23:30:27.525Z,3.03
2022-10-19T23:32:54.067Z,3.10
2022-10-19T23:35:20.508Z,3.33
2022-10-19T23:37:47.010Z,2.72
2022-10-19T23:40:13.470Z,3.47
2022-10-19T23:42:40.008Z,2.90
2022-10-19T23:45:07.095Z,2.95
2022-10-19T23:47:33.861Z,3.10
2022-10-19T23:50:00.625Z,3.80
2022-10-19T23:52:27.142Z,3.42
2022-10-19T23:54:53.684Z,3.30
2022-10-19T23:57:20.235Z,3.03
2022-10-19T23:59:46.772Z,3.08
